Latest Weather Observations for Lucas Heights

IDN60901

Issued at 6:31 am EST Saturday 24 June 2017 (issued every 10 minutes, with the page automatically refreshed every 10 minutes)

About weather observations | Map of Sydney area stations | Latest observations for Sydney area | Other Formats
Station Details ID: 066023 Name: LUCAS HEIGHTS AWS Lat: -34.05 Lon: 150.98 Height: 140.0 m
Data from the previous 72 hours. | See also: Recent months for locations in New South Wales
Date/Time
EST
Temp
°C
App
Temp
°C
Dew
Point
°C
Rel
Hum
%
Delta-T
°C
Wind Press
QNH
hPa
Press
MSL
hPa
Rain since
9am
mm
Dir  Spd
km/h
Gust
km/h
Spd
kts
Gust
kts
24/06:15am 10.9 6.6 3.2 59 3.4 SW 15 20 8 11 1015.4 - 0.0
24/06:00am 11.3 6.0 3.2 57 3.6 SW 20 28 11 15 1015.1 - 0.0
24/05:45am 11.7 4.5 3.2 56 3.8 WSW 30 39 16 21 1014.6 - 0.0
24/05:30am 11.8 4.3 3.2 55 3.8 WSW 32 39 17 21 1014.4 - 0.0
24/05:15am 11.7 4.5 3.2 56 3.8 WSW 30 35 16 19 1014.4 - 0.0
24/05:00am 11.8 5.0 3.1 55 3.8 WSW 28 35 15 19 1014.2 - 0.0
24/04:45am 11.8 5.4 3.0 55 3.9 WSW 26 33 14 18 1013.8 - 0.0
24/04:30am 12.0 4.4 3.0 54 4.0 WSW 32 39 17 21 1013.7 - 0.0
24/04:15am 12.1 4.5 3.0 53 4.0 WSW 32 41 17 22 1014.0 - 0.0
24/04:00am 12.0 4.2 3.0 54 4.0 SW 33 44 18 24 1014.2 - 0.0
24/03:45am 12.1 3.9 2.9 53 4.1 WSW 35 44 19 24 1014.4 - 0.0
24/03:30am 12.1 2.8 3.1 54 4.0 WSW 41 52 22 28 1014.3 - 0.0
24/03:15am 11.5 3.0 3.4 57 3.6 WSW 37 50 20 27 1014.1 - 0.0
24/03:00am 10.6 3.0 3.7 62 3.1 WSW 33 46 18 25 1014.1 - 0.0
24/02:45am 9.7 4.1 3.2 64 2.8 WSW 22 28 12 15 1014.4 - 0.0
24/02:30am 10.2 4.6 3.4 62 3.0 W 22 30 12 16 1014.4 - 0.0
24/02:15am 10.8 5.6 3.4 60 3.3 W 20 30 11 16 1014.2 - 0.0
24/02:00am 11.3 6.7 3.6 59 3.4 W 17 22 9 12 1014.4 - 0.0
24/01:45am 10.6 6.7 3.5 61 3.1 WSW 13 15 7 8 1014.8 - 0.0
24/01:30am 10.7 6.4 3.1 59 3.3 WSW 15 17 8 9 1014.7 - 0.0
24/01:15am 11.0 6.6 2.9 57 3.5 W 15 17 8 9 1014.4 - 0.0
24/01:00am 11.9 7.3 3.6 57 3.7 W 17 20 9 11 1014.3 - 0.0
24/12:45am 12.2 7.2 3.4 55 3.9 W 19 24 10 13 1014.4 - 0.0
24/12:30am 12.6 7.5 3.3 53 4.2 W 19 28 10 15 1014.4 - 0.0
24/12:15am 12.4 6.4 3.3 54 4.1 W 24 30 13 16 1014.3 - 0.0
24/12:00am 12.0 6.3 3.1 54 3.9 W 22 32 12 17 1014.4 - 0.0
 
Date/Time
EST
Temp
°C
App
Temp
°C
Dew
Point
°C
Rel
Hum
%
Delta-T
°C
Wind Press
QNH
hPa
Press
MSL
hPa
Rain since
9am
mm
Dir  Spd
km/h
Gust
km/h
Spd
kts
Gust
kts
23/11:45pm 12.4 6.7 3.1 53 4.1 W 22 28 12 15 1014.5 - 0.0
23/11:30pm 12.5 7.5 3.6 54 4.0 W 19 26 10 14 1015.0 - 0.0
23/11:15pm 12.7 7.5 3.6 54 4.1 WSW 20 24 11 13 1015.2 - 0.0
23/11:00pm 12.4 7.2 3.3 54 4.1 WSW 20 24 11 13 1015.3 - 0.0
23/10:45pm 12.5 7.2 3.1 52 4.2 WSW 20 26 11 14 1015.4 - 0.0
23/10:30pm 12.2 6.2 3.4 55 3.9 WSW 24 30 13 16 1015.4 - 0.0
23/10:15pm 12.1 6.5 3.5 55 3.8 SW 22 26 12 14 1015.2 - 0.0
23/10:00pm 12.4 6.8 3.7 55 3.9 WSW 22 26 12 14 1015.0 - 0.0
23/09:45pm 12.4 7.6 4.5 58 3.6 WSW 19 22 10 12 1014.7 - 0.0
23/09:30pm 11.8 7.2 5.7 66 2.9 SW 19 20 10 11 1015.1 - 0.0
23/09:15pm 10.5 6.6 7.0 79 1.7 SW 17 20 9 11 1015.2 - 0.0
23/09:00pm 10.0 5.9 6.4 78 1.7 SW 17 19 9 10 1015.3 - 0.0
23/08:45pm 10.8 7.2 6.9 77 1.9 SW 15 17 8 9 1015.2 - 0.0
23/08:30pm 12.1 8.9 8.3 77 1.9 SW 15 17 8 9 1015.3 - 0.0
23/08:15pm 11.7 8.7 9.4 86 1.2 SW 15 17 8 9 1015.4 - 0.0
23/08:00pm 9.9 6.5 7.6 85 1.1 SW 15 20 8 11 1015.4 - 0.0
23/07:45pm 10.7 7.3 7.6 81 1.5 WSW 15 17 8 9 1015.2 - 0.0
23/07:30pm 12.2 9.7 8.2 76 2.0 W 11 15 6 8 1015.2 - 0.0
23/07:15pm 13.4 10.8 9.3 76 2.1 WSW 13 15 7 8 1015.2 - 0.0
23/07:00pm 13.0 10.9 9.9 81 1.6 WSW 11 15 6 8 1015.3 - 0.0
23/06:45pm 11.6 9.7 9.2 85 1.2 W 9 13 5 7 1015.2 - 0.0
23/06:30pm 11.2 9.6 8.7 84 1.2 WNW 7 11 4 6 1015.0 - 0.0
23/06:15pm 11.5 9.9 8.6 82 1.4 NW 7 9 4 5 1015.0 - 0.0
23/06:00pm 11.9 10.3 8.9 82 1.5 NW 7 9 4 5 1015.0 - 0.0
23/05:45pm 12.1 10.2 8.9 81 1.6 NW 9 11 5 6 1015.0 - 0.0
23/05:30pm 12.5 10.1 8.5 76 2.0 NNW 11 11 6 6 1014.9 - 0.0
23/05:15pm 13.6 11.6 8.8 73 2.4 NW 9 11 5 6 1014.9 - 0.0
23/05:00pm 14.2 12.4 9.3 72 2.5 WNW 9 11 5 6 1014.8 - 0.0
23/04:45pm 14.7 13.3 9.5 71 2.7 WNW 7 11 4 6 1014.9 - 0.0
23/04:30pm 14.9 13.5 9.7 71 2.7 W 7 11 4 6 1014.9 - 0.0
23/04:15pm 14.9 14.0 9.3 69 2.9 W 4 11 2 6 1014.7 - 0.0
23/04:00pm 15.0 13.5 9.2 68 3.0 WNW 7 13 4 7 1014.6 - 0.0
23/03:45pm 15.2 13.3 9.2 67 3.1 WNW 9 15 5 8 1014.7 - 0.0
23/03:30pm 15.5 14.1 9.6 68 3.1 WNW 7 17 4 9 1014.8 - 0.0
23/03:15pm 15.2 13.1 9.6 69 2.9 WNW 11 15 6 8 1014.9 - 0.0
23/03:00pm 15.4 13.3 9.8 69 2.9 NW 11 15 6 8 1014.8 - 0.0
23/02:45pm 15.0 13.2 9.5 69 2.9 NW 9 15 5 8 1014.9 - 0.0
23/02:30pm 15.2 13.8 9.7 69 2.9 NW 7 17 4 9 1014.9 - 0.0
23/02:15pm 14.5 13.1 9.4 71 2.6 NW 7 15 4 8 1015.0 - 0.0
23/02:00pm 14.2 12.9 9.3 72 2.5 NW 6 13 3 7 1015.3 - 0.0
23/01:45pm 14.0 13.8 9.1 72 2.5 CALM 0 4 0 2 1015.6 - 0.0
23/01:30pm 14.0 13.8 8.9 71 2.6 CALM 0 4 0 2 1015.9 - 0.0
23/01:15pm 14.2 13.9 8.7 69 2.8 CALM 0 4 0 2 1016.2 - 0.0
23/01:00pm 14.3 13.6 8.6 68 2.9 WNW 2 7 1 4 1016.5 - 0.0
23/12:45pm 14.6 13.8 8.3 66 3.2 WNW 2 15 1 8 1016.8 - 0.0
23/12:30pm 15.1 14.0 8.3 64 3.4 NW 4 11 2 6 1016.9 - 0.0
23/12:15pm 15.0 12.6 8.5 65 3.3 WNW 11 17 6 9 1017.2 - 0.0
23/12:00pm 14.4 12.0 8.8 69 2.9 WNW 11 15 6 8 1017.7 - 0.0
23/11:45am 13.9 12.3 8.6 70 2.7 WNW 7 15 4 8 1018.3 - 0.0
23/11:30am 13.7 12.7 8.7 72 2.5 WNW 4 13 2 7 1018.7 - 0.0
23/11:15am 13.6 13.0 8.9 73 2.4 WNW 2 13 1 7 1019.0 - 0.0
23/11:00am 13.3 11.3 8.7 73 2.3 WNW 9 15 5 8 1019.4 - 0.0
23/10:45am 13.6 12.3 9.2 75 2.3 WNW 6 15 3 8 1019.7 - 0.0
23/10:30am 13.5 11.8 10.0 79 1.8 WNW 9 15 5 8 1019.8 - 0.0
23/10:15am 13.3 11.9 11.0 86 1.2 W 9 13 5 7 1020.1 - 0.0
23/10:00am 12.6 11.7 11.2 91 0.7 W 7 11 4 6 1020.4 - 0.0
23/09:45am 12.2 11.3 11.2 94 0.5 W 7 11 4 6 1020.6 - 0.0
23/09:30am 11.9 10.9 11.0 94 0.5 WSW 7 13 4 7 1020.6 - 0.0
23/09:15am 10.3 8.5 9.4 94 0.5 SW 9 15 5 8 1020.6 - 0.0
23/09:00am 9.1 6.2 8.2 94 0.4 WSW 13 17 7 9 1020.6 - 0.0
23/08:45am 8.6 5.6 7.7 94 0.4 WSW 13 15 7 8 1020.5 - 0.0
23/08:30am 8.4 5.0 7.5 94 0.4 WSW 15 17 8 9 1020.7 - 0.0
23/08:15am 7.8 4.2 6.9 94 0.4 WSW 15 17 8 9 1020.5 - 0.0
23/08:00am 7.9 4.0 7.0 94 0.4 WSW 17 20 9 11 1020.6 - 0.0
23/07:45am 7.5 4.2 6.6 94 0.4 WSW 13 19 7 10 1020.8 - 0.0
23/07:30am 7.1 3.0 6.3 95 0.4 W 17 20 9 11 1020.8 - 0.0
23/07:15am 6.7 2.9 5.8 94 0.4 W 15 19 8 10 1020.8 - 0.0
23/07:00am 6.7 4.1 5.9 95 0.4 W 9 13 5 7 1020.6 - 0.0
23/06:45am 6.5 3.8 5.7 95 0.4 W 9 13 5 7 1020.5 - 0.0
23/06:30am 6.2 3.4 5.3 94 0.4 W 9 11 5 6 1020.3 - 0.0
23/06:15am 6.1 3.9 5.2 94 0.4 WSW 6 7 3 4 1020.3 - 0.0
23/06:00am 6.7 4.6 5.8 94 0.4 SW 6 7 3 4 1020.3 - 0.0
23/05:45am 6.8 4.7 5.9 94 0.4 SW 6 7 3 4 1020.3 - 0.0
23/05:30am 6.9 4.3 6.0 94 0.4 SW 9 11 5 6 1020.4 - 0.0
23/05:15am 6.4 2.9 5.5 94 0.4 SW 13 15 7 8 1020.6 - 0.0
23/05:00am 6.4 2.5 5.4 93 0.4 SW 15 17 8 9 1020.6 - 0.0
23/04:45am 7.5 3.5 6.5 93 0.5 SW 17 19 9 10 1020.5 - 0.0
23/04:30am 6.9 3.2 6.1 95 0.4 SW 15 17 8 9 1020.6 - 0.0
23/04:15am 6.4 2.5 5.5 94 0.4 SW 15 17 8 9 1020.7 - 0.0
23/04:00am 5.9 1.9 5.0 94 0.4 SW 15 17 8 9 1020.8 - 0.0
23/03:45am 6.1 2.1 5.1 93 0.4 SW 15 15 8 8 1021.1 - 0.0
23/03:30am 6.1 3.7 5.1 93 0.4 SW 7 15 4 8 1021.2 - 0.0
23/03:15am 6.3 3.9 5.3 93 0.4 SW 7 11 4 6 1021.2 - 0.0
23/03:00am 6.5 4.7 5.5 93 0.4 SW 4 11 2 6 1021.2 - 0.0
23/02:45am 6.7 4.6 5.7 93 0.4 WSW 6 9 3 5 1021.4 - 0.0
23/02:30am 6.9 5.6 5.9 93 0.5 WSW 2 7 1 4 1021.5 - 0.0
23/02:15am 7.0 5.0 6.1 94 0.4 W 6 9 3 5 1021.7 - 0.0
23/02:00am 7.1 6.2 6.1 93 0.5 CALM 0 7 0 4 1021.8 - 0.0
23/01:45am 7.3 5.3 6.3 93 0.5 NW 6 11 3 6 1021.9 - 0.0
23/01:30am 7.4 5.8 6.4 93 0.5 WNW 4 7 2 4 1022.0 - 0.0
23/01:15am 7.6 5.5 6.6 93 0.5 WNW 7 11 4 6 1022.2 - 0.0
23/01:00am 7.6 6.8 6.6 93 0.5 CALM 0 9 0 5 1022.2 - 0.0
23/12:30am 8.0 6.5 7.0 93 0.5 WNW 4 9 2 5 1022.5 - 0.0
23/12:15am 7.7 6.9 6.5 92 0.6 CALM 0 0 0 0 1022.5 - 0.0
23/12:00am 7.9 6.8 6.8 93 0.5 NW 2 7 1 4 1022.7 - 0.0
 
Date/Time
EST
Temp
°C
App
Temp
°C
Dew
Point
°C
Rel
Hum
%
Delta-T
°C
Wind Press
QNH
hPa
Press
MSL
hPa
Rain since
9am
mm
Dir  Spd
km/h
Gust
km/h
Spd
kts
Gust
kts
22/11:45pm 8.0 7.3 6.9 93 0.5 CALM 0 0 0 0 1023.1 - 0.0
22/11:30pm 8.3 7.6 7.1 92 0.6 CALM 0 0 0 0 1023.5 - 0.0
22/11:15pm 8.5 6.6 7.4 93 0.5 NW 7 9 4 5 1023.8 - 0.0
22/11:00pm 8.8 6.9 7.7 93 0.5 NNW 7 9 4 5 1023.8 - 0.0
22/10:45pm 8.8 8.3 7.7 93 0.5 CALM 0 6 0 3 1023.9 - 0.0
22/10:30pm 9.0 8.5 7.9 93 0.5 CALM 0 4 0 2 1024.0 - 0.0
22/10:15pm 9.1 8.6 7.9 92 0.6 CALM 0 0 0 0 1023.9 - 0.0
22/10:00pm 9.2 8.7 8.0 92 0.6 CALM 0 0 0 0 1023.9 - 0.0
22/09:45pm 9.4 9.0 8.1 92 0.6 CALM 0 0 0 0 1024.1 - 0.0
22/09:30pm 9.4 9.0 8.1 92 0.6 CALM 0 0 0 0 1024.2 - 0.0
22/09:15pm 9.5 9.1 8.1 91 0.7 CALM 0 0 0 0 1024.3 - 0.0
22/08:45pm 10.2 9.9 8.7 90 0.7 CALM 0 0 0 0 1024.6 - 0.0
22/08:30pm 10.4 10.2 8.9 90 0.7 CALM 0 0 0 0 1024.4 - 0.0
22/08:15pm 10.5 10.3 8.9 90 0.8 CALM 0 0 0 0 1024.4 - 0.0
22/08:00pm 10.5 10.3 8.9 90 0.8 CALM 0 0 0 0 1024.5 - 0.0
22/07:45pm 10.7 10.5 9.0 89 0.8 CALM 0 0 0 0 1024.5 - 0.0
22/07:30pm 10.9 10.7 9.0 88 0.9 CALM 0 0 0 0 1024.5 - 0.0
22/07:15pm 11.1 10.9 9.1 87 1.0 CALM 0 0 0 0 1024.6 - 0.0
22/07:00pm 11.5 11.4 9.4 87 1.1 CALM 0 0 0 0 1024.7 - 0.0
22/06:45pm 11.9 11.8 9.6 86 1.2 CALM 0 0 0 0 1024.7 - 0.0
22/06:30pm 12.2 12.1 9.6 84 1.3 CALM 0 0 0 0 1024.6 - 0.0
22/06:15pm 12.7 12.7 9.9 83 1.4 CALM 0 0 0 0 1024.4 - 0.0
22/06:00pm 13.0 13.1 10.1 82 1.5 CALM 0 0 0 0 1024.3 - 0.0
22/05:45pm 13.1 13.2 10.1 82 1.6 CALM 0 0 0 0 1024.3 - 0.0
22/05:30pm 13.3 13.4 10.1 81 1.7 CALM 0 2 0 1 1024.4 - 0.0
22/05:15pm 13.6 13.7 10.2 80 1.8 CALM 0 4 0 2 1024.4 - 0.0
22/05:00pm 14.1 14.2 10.2 77 2.0 CALM 0 7 0 4 1024.5 - 0.0
22/04:45pm 14.7 14.5 10.3 75 2.3 E 2 9 1 5 1024.6 - 0.0
22/04:30pm 15.5 15.6 10.3 71 2.8 CALM 0 6 0 3 1024.7 - 0.0
22/04:15pm 16.1 16.2 10.3 68 3.1 CALM 0 0 0 0 1024.7 - 0.0
22/04:00pm 16.7 16.4 8.8 59 4.1 CALM 0 2 0 1 1024.7 - 0.0
22/03:45pm 17.2 16.7 8.0 54 4.7 CALM 0 4 0 2 1024.6 - 0.0
22/03:30pm 17.2 16.7 7.7 53 4.8 CALM 0 2 0 1 1024.5 - 0.0
22/03:15pm 17.1 16.6 7.7 54 4.8 CALM 0 4 0 2 1024.4 - 0.0
22/03:00pm 17.0 16.5 7.8 54 4.7 CALM 0 6 0 3 1024.4 - 0.0
22/02:45pm 17.1 16.9 9.0 59 4.2 CALM 0 2 0 1 1024.4 - 0.0
22/02:30pm 17.0 17.1 10.2 64 3.6 CALM 0 4 0 2 1024.4 - 0.0
22/02:15pm 16.7 16.8 10.0 64 3.6 CALM 0 4 0 2 1024.5 - 0.0
22/02:00pm 16.6 16.7 10.0 65 3.5 CALM 0 2 0 1 1024.7 - 0.0
22/01:45pm 16.3 16.4 10.2 67 3.2 CALM 0 0 0 0 1025.0 - 0.0
22/01:30pm 16.3 16.3 9.9 66 3.4 CALM 0 0 0 0 1025.2 - 0.0
22/01:15pm 16.8 16.8 9.8 63 3.7 CALM 0 4 0 2 1025.4 - 0.0
22/01:00pm 17.0 17.1 10.1 64 3.7 CALM 0 7 0 4 1025.6 - 0.0
22/12:45pm 16.4 16.5 10.0 66 3.4 CALM 0 0 0 0 1025.9 - 0.0
22/12:30pm 16.2 16.1 9.6 65 3.5 CALM 0 0 0 0 1026.3 - 0.0
22/12:15pm 15.9 15.9 9.9 67 3.2 CALM 0 0 0 0 1026.5 - 0.0
22/12:00pm 15.6 15.5 9.6 67 3.1 CALM 0 4 0 2 1026.8 - 0.0
22/11:45am 15.8 15.8 9.7 67 3.2 CALM 0 0 0 0 1027.1 - 0.0
22/11:30am 16.0 15.9 9.5 65 3.4 CALM 0 0 0 0 1027.4 - 0.0
22/11:15am 16.3 16.2 9.5 64 3.6 CALM 0 6 0 3 1027.6 - 0.0
22/11:00am 15.8 15.7 9.4 65 3.3 CALM 0 4 0 2 1027.8 - 0.0
22/10:45am 15.9 16.0 10.1 68 3.1 CALM 0 4 0 2 1028.0 - 0.0
22/10:30am 15.8 15.9 10.1 69 3.0 CALM 0 2 0 1 1028.3 - 0.0
22/10:15am 15.9 16.1 10.6 71 2.8 CALM 0 4 0 2 1028.4 - 0.0
22/10:00am 15.4 15.6 10.6 73 2.6 CALM 0 2 0 1 1028.5 - 0.0
22/09:45am 14.9 15.1 10.4 74 2.4 CALM 0 2 0 1 1028.4 - 0.0
22/09:30am 14.6 14.4 10.4 76 2.2 S 2 13 1 7 1028.3 - 0.0
22/09:15am 14.3 14.1 10.4 77 2.1 S 2 13 1 7 1028.3 - 0.0
22/09:00am 13.7 13.1 10.4 80 1.7 S 4 13 2 7 1028.2 - 0.0
22/08:45am 13.0 11.8 10.2 83 1.5 S 7 13 4 7 1028.2 - 0.0
22/08:30am 12.4 11.2 10.2 86 1.1 S 7 15 4 8 1028.2 - 0.0
22/08:15am 11.5 10.2 9.9 90 0.8 S 7 20 4 11 1028.2 - 0.0
22/08:00am 10.0 6.8 8.5 90 0.7 S 15 17 8 9 1028.1 - 0.0
22/07:45am 9.2 5.8 7.5 89 0.8 S 15 17 8 9 1028.0 - 0.0
22/07:30am 9.6 6.6 7.9 89 0.8 S 13 17 7 9 1027.9 - 0.0
22/07:15am 9.5 6.6 8.0 90 0.7 S 13 17 7 9 1027.8 - 0.0
22/07:00am 9.4 6.8 7.9 90 0.7 S 11 15 6 8 1027.7 - 0.0
22/06:45am 8.2 6.2 6.4 88 0.8 SSW 6 13 3 7 1027.7 - 0.0
22/06:30am 8.8 8.1 7.1 89 0.8 CALM 0 0 0 0 1027.4 - 0.0
22/06:15am 8.8 8.1 6.8 87 0.9 CALM 0 0 0 0 1027.1 - 0.0
22/06:00am 10.5 10.2 8.6 88 0.9 CALM 0 0 0 0 1026.9 - 0.0
22/05:45am 10.6 9.9 8.7 88 0.9 S 2 9 1 5 1026.8 - 0.0
22/05:30am 10.5 9.4 8.5 87 1.0 S 4 11 2 6 1026.6 - 0.0
22/05:15am 10.6 9.5 8.5 87 1.0 S 4 15 2 8 1026.7 - 0.0
22/05:00am 11.0 10.0 8.8 86 1.1 S 4 15 2 8 1026.7 - 0.0
22/04:45am 11.0 9.6 8.8 86 1.1 S 6 17 3 9 1026.7 - 0.0
22/04:30am 11.3 9.0 8.9 85 1.2 S 11 24 6 13 1026.7 - 0.0
22/04:15am 11.6 8.6 9.2 85 1.2 S 15 26 8 14 1026.6 - 0.0
22/04:00am 11.7 8.7 9.2 85 1.3 S 15 22 8 12 1026.6 - 0.0
22/03:45am 11.7 8.3 9.3 85 1.2 S 17 24 9 13 1026.6 - 0.0
22/03:30am 11.8 8.8 9.3 85 1.3 S 15 24 8 13 1026.5 - 0.0
22/03:15am 11.8 8.5 9.4 85 1.2 S 17 24 9 13 1026.7 - 0.0
22/03:00am 11.7 8.0 9.3 85 1.2 S 19 24 10 13 1026.8 - 0.0
22/02:45am 11.6 8.6 9.3 86 1.2 S 15 22 8 12 1027.0 - 0.0
22/02:30am 11.6 8.2 9.3 86 1.2 S 17 22 9 12 1027.1 - 0.0
22/02:15am 11.3 7.9 9.1 86 1.1 S 17 22 9 12 1027.1 - 0.0
22/02:00am 11.3 8.3 9.1 86 1.1 S 15 22 8 12 1027.2 - 0.0
22/01:45am 11.3 8.3 9.1 86 1.1 S 15 20 8 11 1027.3 - 0.0
22/01:30am 11.2 7.8 9.1 87 1.1 S 17 22 9 12 1027.3 - 0.0
22/01:15am 10.7 7.2 8.7 87 1.0 S 17 20 9 11 1027.4 - 0.0
22/01:00am 10.5 6.9 8.2 86 1.1 S 17 20 9 11 1027.5 - 0.0
22/12:45am 10.9 7.7 8.6 86 1.1 S 15 20 8 11 1027.6 - 0.0
22/12:30am 10.7 7.5 8.4 86 1.1 S 15 22 8 12 1027.7 - 0.0
22/12:15am 10.5 7.2 8.0 84 1.2 S 15 22 8 12 1027.6 - 0.0
22/12:00am 10.8 8.0 8.4 85 1.2 S 13 19 7 10 1027.7 - 0.0
 
Date/Time
EST
Temp
°C
App
Temp
°C
Dew
Point
°C
Rel
Hum
%
Delta-T
°C
Wind Press
QNH
hPa
Press
MSL
hPa
Rain since
9am
mm
Dir  Spd
km/h
Gust
km/h
Spd
kts
Gust
kts
21/11:45pm 10.6 7.3 8.2 85 1.2 S 15 20 8 11 1027.8 - 0.0
21/11:30pm 10.7 7.5 8.3 85 1.2 S 15 20 8 11 1028.0 - 0.0
21/11:15pm 10.6 7.3 8.2 85 1.2 S 15 20 8 11 1028.1 - 0.0
21/11:00pm 10.9 7.3 8.5 85 1.2 S 17 22 9 12 1028.2 - 0.0
21/10:45pm 10.9 7.3 8.4 84 1.2 S 17 20 9 11 1028.1 - 0.0
21/10:30pm 11.2 8.0 8.6 84 1.3 S 15 20 8 11 1028.1 - 0.0
21/10:15pm 11.6 8.5 9.0 84 1.3 S 15 22 8 12 1028.2 - 0.0
21/10:00pm 11.5 8.4 9.0 85 1.3 S 15 20 8 11 1028.2 - 0.0
21/09:45pm 11.4 8.3 8.8 84 1.3 S 15 17 8 9 1028.2 - 0.0
21/09:30pm 11.7 8.3 9.1 84 1.3 S 17 20 9 11 1028.2 - 0.0
21/09:15pm 11.4 7.9 8.8 84 1.3 S 17 20 9 11 1028.3 - 0.0
21/09:00pm 11.5 8.4 8.7 83 1.4 S 15 19 8 10 1028.4 - 0.0
21/08:45pm 11.8 9.1 8.8 82 1.5 S 13 17 7 9 1028.5 - 0.0
21/08:30pm 12.1 9.4 8.8 80 1.7 S 13 20 7 11 1028.6 - 0.0
21/08:15pm 12.5 9.4 8.9 79 1.8 SSW 15 20 8 11 1028.6 - 0.0
21/08:00pm 12.7 9.3 9.0 78 1.9 SSW 17 22 9 12 1028.6 - 0.0
21/07:45pm 12.8 9.4 9.0 78 1.9 SSW 17 20 9 11 1028.4 - 0.0
21/07:30pm 12.9 9.5 9.3 79 1.8 SSW 17 22 9 12 1028.3 - 0.0
21/07:15pm 12.6 9.9 8.8 77 1.9 S 13 20 7 11 1028.1 - 0.0
21/07:00pm 12.8 11.5 9.1 78 1.9 S 6 19 3 10 1028.0 - 0.0
21/06:45pm 12.6 12.4 8.9 78 1.9 CALM 0 4 0 2 1027.8 - 0.0
21/06:30pm 12.5 12.2 8.7 77 1.9 CALM 0 7 0 4 1027.5 - 0.0
21/06:15pm 12.7 11.7 8.8 77 2.0 S 4 11 2 6 1027.3 - 0.0
21/06:00pm 13.1 12.6 9.2 77 2.0 S 2 9 1 5 1027.2 - 0.0
21/05:45pm 12.9 11.4 9.1 78 1.9 S 7 15 4 8 1026.9 - 0.0
21/05:30pm 13.0 10.4 9.3 78 1.9 S 13 15 7 8 1026.5 - 0.0
21/05:15pm 13.0 10.3 8.9 76 2.1 S 13 15 7 8 1026.3 - 0.0
21/05:00pm 13.9 11.7 9.2 73 2.4 S 11 19 6 10 1026.1 - 0.0
21/04:45pm 14.6 12.4 9.3 70 2.7 S 11 17 6 9 1026.1 - 0.0
21/04:30pm 15.4 12.8 9.4 67 3.1 S 13 22 7 12 1026.0 - 0.0
21/04:15pm 15.7 12.4 9.4 66 3.3 SSE 17 26 9 14 1025.9 - 0.0
21/04:00pm 15.9 12.2 9.4 65 3.4 SSE 19 28 10 15 1025.7 - 0.0
21/03:45pm 16.4 13.5 9.6 64 3.6 SSE 15 26 8 14 1025.6 - 0.0
21/03:30pm 16.9 14.2 10.2 64 3.6 S 15 26 8 14 1025.6 - 0.0
21/03:15pm 16.8 13.7 10.4 66 3.4 S 17 30 9 16 1025.7 - 0.0
21/03:00pm 16.4 12.2 9.8 65 3.5 SSE 22 35 12 19 1025.7 - 0.0
21/02:45pm 16.8 12.6 9.9 64 3.7 S 22 33 12 18 1025.6 - 0.0
21/02:30pm 16.9 13.4 10.2 64 3.6 S 19 30 10 16 1025.6 - 0.0
21/02:15pm 16.5 11.9 9.5 63 3.7 SSE 24 35 13 19 1025.5 - 0.0
21/02:00pm 16.7 12.1 9.7 63 3.7 SSE 24 37 13 20 1025.4 - 0.0
21/01:45pm 16.8 11.8 9.7 63 3.7 SSE 26 35 14 19 1025.3 - 0.0
21/01:30pm 17.0 13.5 11.0 68 3.2 SSE 20 37 11 20 1025.4 - 0.0
21/01:15pm 16.9 12.8 11.4 70 3.0 S 24 32 13 17 1025.5 - 0.0
21/01:00pm 16.6 13.0 11.7 73 2.7 SSE 22 35 12 19 1025.6 - 0.0
21/12:45pm 16.6 13.0 11.9 74 2.6 SSE 22 35 12 19 1025.6 - 0.0
21/12:30pm 16.6 12.7 12.0 74 2.5 SSE 24 35 13 19 1025.7 - 0.0
21/12:15pm 16.6 13.1 12.2 75 2.4 SSE 22 33 12 18 1025.7 - 0.0
21/12:00pm 16.5 13.3 11.8 74 2.6 SSE 20 30 11 16 1025.9 - 0.0
21/11:45am 16.8 13.8 12.1 74 2.6 SSE 19 33 10 18 1026.1 - 0.0
21/11:30am 16.8 13.6 11.9 73 2.7 SSE 20 32 11 17 1026.1 - 0.0
21/11:15am 16.7 14.4 11.8 73 2.7 SSE 15 30 8 16 1026.2 - 0.0
21/11:00am 14.7 13.1 8.7 67 3.1 SSW 7 17 4 9 1026.4 - 0.0
21/10:45am 14.3 12.8 8.3 67 3.0 WSW 6 13 3 7 1026.5 - 0.0
21/10:30am 13.8 11.6 8.0 68 2.9 WSW 9 15 5 8 1026.5 - 0.0
21/10:15am 13.0 10.3 7.2 68 2.8 WSW 11 17 6 9 1026.4 - 0.0
21/10:00am 12.9 10.1 6.9 67 2.9 WSW 11 17 6 9 1026.3 - 0.0
21/09:45am 12.6 9.4 7.0 68 2.7 WSW 13 17 7 9 1026.2 - 0.0
21/09:30am 13.0 10.0 7.6 70 2.7 SW 13 17 7 9 1026.0 - 0.0
21/09:15am 13.1 10.2 8.2 72 2.4 SW 13 15 7 8 1025.8 - 0.0
21/09:00am 12.8 10.3 8.1 73 2.3 SW 11 15 6 8 1025.7 - 0.0
21/08:45am 11.5 8.7 7.1 74 2.1 SW 11 15 6 8 1025.5 - 0.0
21/08:30am 10.6 7.3 6.4 75 2.0 SSW 13 17 7 9 1025.3 - 0.0
21/08:15am 9.9 6.1 6.0 77 1.8 SSW 15 17 8 9 1025.1 - 0.0
21/08:00am 8.4 4.9 5.5 82 1.3 SSW 13 15 7 8 1025.0 - 0.0
21/07:45am 6.9 3.2 4.3 83 1.1 S 13 15 7 8 1024.9 - 0.0
21/07:30am 6.7 3.3 3.8 82 1.2 S 11 15 6 8 1024.8 - 0.0
21/07:15am 6.7 3.2 3.7 81 1.3 SSW 11 15 6 8 1024.6 - 0.0
21/07:00am 6.8 3.3 3.7 80 1.3 S 11 15 6 8 1024.4 - 0.0
21/06:45am 6.9 3.0 3.2 77 1.6 SSW 13 15 7 8 1024.2 - 0.0

Latest Capital City Observations: Canberra | Sydney | Melbourne | Brisbane | Adelaide | Perth | Hobart | Darwin

Other Formats:

Comma delimited format used in spreadsheet applications
http://www.bom.gov.au/fwo/IDN60901/IDN60901.95757.axf

JavaScript Object Notation format (JSON) in row-major order
http://www.bom.gov.au/fwo/IDN60901/IDN60901.95757.json